createdAt,value
2023-05-19T08:32:05.766Z,54.20
2023-05-19T08:35:08.429Z,53.78
2023-05-19T08:38:09.969Z,53.35
2023-05-19T08:41:11.490Z,53.18
2023-05-19T08:44:13.108Z,52.76
2023-05-19T08:47:15.342Z,53.30
2023-05-19T08:50:21.332Z,53.17
2023-05-19T08:53:34.926Z,52.58
2023-05-19T08:56:38.043Z,52.53
2023-05-19T08:59:41.689Z,52.23
2023-05-19T09:02:50.783Z,52.90
2023-05-19T09:06:02.736Z,53.50
2023-05-19T09:09:04.452Z,53.74
2023-05-19T09:12:06.414Z,53.26
2023-05-19T09:15:09.843Z,52.57
2023-05-19T09:18:13.004Z,51.70
2023-05-19T09:21:14.737Z,51.94
2023-05-19T09:24:16.676Z,51.60
2023-05-19T09:27:23.248Z,52.12
2023-05-19T09:30:24.914Z,51.56
2023-05-19T09:33:26.996Z,52.10
2023-05-19T09:36:29.862Z,51.86
2023-05-19T09:39:32.731Z,52.17
2023-05-19T09:42:37.309Z,52.02
2023-05-19T09:45:38.791Z,51.30
2023-05-19T09:48:40.335Z,50.55
2023-05-19T09:51:41.923Z,50.40
2023-05-19T09:54:43.518Z,49.35
2023-05-19T09:57:45.294Z,49.18
2023-05-19T10:00:47.761Z,49.17
2023-05-19T10:03:49.567Z,48.92
2023-05-19T10:06:54.038Z,48.87
2023-05-19T10:09:57.944Z,49.25
2023-05-19T10:13:01.207Z,49.13
2023-05-19T10:16:06.041Z,48.86
2023-05-19T10:19:09.022Z,49.13
2023-05-19T10:22:10.979Z,50.20
2023-05-19T10:25:15.197Z,50.99
2023-05-19T10:28:21.141Z,51.15
2023-05-19T10:31:24.340Z,51.04
2023-05-19T10:34:50.547Z,51.10
2023-05-19T10:37:58.089Z,50.81
2023-05-19T10:41:24.411Z,51.71
2023-05-19T10:44:49.203Z,51.41
2023-05-19T10:47:51.653Z,51.44
2023-05-19T10:50:54.999Z,51.34
2023-05-19T10:53:58.677Z,50.85
2023-05-19T10:57:00.653Z,51.11
2023-05-19T11:00:28.210Z,50.92
2023-05-19T11:06:36.419Z,50.50
2023-05-19T11:09:41.260Z,49.14
2023-05-19T11:12:45.543Z,49.49
2023-05-19T11:15:47.062Z,48.78
2023-05-19T11:18:50.480Z,49.26
2023-05-19T11:21:55.011Z,49.16
2023-05-19T11:24:57.432Z,48.84
2023-05-19T11:27:59.934Z,48.64
2023-05-19T11:31:02.515Z,48.12
2023-05-19T11:34:06.783Z,48.36
2023-05-19T11:37:09.146Z,48.66
2023-05-19T11:40:13.757Z,48.17
2023-05-19T11:43:16.720Z,48.34
2023-05-19T11:46:18.473Z,48.48
2023-05-19T11:49:20.133Z,48.53
2023-05-19T11:52:23.209Z,48.45
2023-05-19T11:55:24.879Z,48.44
2023-05-19T11:58:37.045Z,48.07
2023-05-19T12:01:38.643Z,47.76
2023-05-19T12:04:40.199Z,47.86
2023-05-19T12:07:43.203Z,47.94
2023-05-19T12:10:48.983Z,48.18
2023-05-19T12:13:54.504Z,47.75
2023-05-19T12:16:56.212Z,47.95
2023-05-19T12:19:58.322Z,47.51
2023-05-19T12:23:01.112Z,47.72
2023-05-19T12:26:02.798Z,47.66
2023-05-19T12:29:06.601Z,47.15
2023-05-19T12:32:09.368Z,47.53
2023-05-19T12:35:11.614Z,47.94
2023-05-19T12:38:14.408Z,48.92
2023-05-19T12:41:17.369Z,49.13
2023-05-19T12:44:18.836Z,49.22
2023-05-19T12:47:21.078Z,49.22
2023-05-19T12:50:30.048Z,48.66
2023-05-19T12:53:33.195Z,48.21
2023-05-19T12:56:34.705Z,48.03
2023-05-19T12:59:38.818Z,47.99
2023-05-19T13:02:57.570Z,47.84
2023-05-19T13:05:59.811Z,47.87
2023-05-19T13:09:01.426Z,48.98
2023-05-19T13:12:04.717Z,49.80
2023-05-19T13:15:07.090Z,50.29
2023-05-19T13:18:10.570Z,50.59
2023-05-19T13:21:12.164Z,50.76
2023-05-19T13:24:13.994Z,50.81
2023-05-19T13:27:15.856Z,50.73
2023-05-19T13:30:18.355Z,50.87
2023-05-19T13:33:19.870Z,51.04
2023-05-19T13:36:21.558Z,51.10
2023-05-19T13:39:23.104Z,50.95
2023-05-19T13:42:24.712Z,50.94
2023-05-19T13:45:26.561Z,51.14
2023-05-19T13:48:28.094Z,51.43
2023-05-19T13:51:29.627Z,51.74
2023-05-19T13:54:31.183Z,51.66
2023-05-19T13:57:33.119Z,51.28
2023-05-19T14:00:36.336Z,51.04
2023-05-19T14:03:38.128Z,51.28
2023-05-19T14:06:39.856Z,52.00
2023-05-19T14:09:41.341Z,52.22
2023-05-19T14:13:06.454Z,52.33
2023-05-19T14:16:05.179Z,52.38
2023-05-19T14:19:07.112Z,52.30
2023-05-19T14:22:08.863Z,52.51
2023-05-19T14:25:10.603Z,52.86
2023-05-19T14:28:12.210Z,53.23
2023-05-19T14:31:14.805Z,53.11
2023-05-19T14:34:17.953Z,53.46
2023-05-19T14:37:20.207Z,53.25
2023-05-19T14:40:21.772Z,53.44
2023-05-19T14:43:23.355Z,52.91
2023-05-19T14:46:25.016Z,53.10
2023-05-19T14:49:26.569Z,52.92
2023-05-19T14:52:28.040Z,53.01
2023-05-19T14:55:29.700Z,53.18
2023-05-19T14:58:31.250Z,53.21
2023-05-19T15:01:32.831Z,53.12
2023-05-19T15:04:34.339Z,53.41
2023-05-19T15:07:36.128Z,53.58
2023-05-19T15:10:37.699Z,53.39
2023-05-19T15:13:39.229Z,53.53
2023-05-19T15:16:40.841Z,53.44
2023-05-19T15:19:42.995Z,53.68
2023-05-19T15:22:44.529Z,53.74
2023-05-19T15:25:46.084Z,53.86
2023-05-19T15:28:47.625Z,53.71
2023-05-19T15:31:52.557Z,53.35
2023-05-19T15:34:54.123Z,54.21
2023-05-19T15:37:55.691Z,54.33
2023-05-19T15:40:57.226Z,55.10
2023-05-19T15:44:02.486Z,55.49
2023-05-19T15:47:04.120Z,55.84
2023-05-19T15:50:06.148Z,56.33
2023-05-19T15:53:08.870Z,56.48
2023-05-19T15:56:10.702Z,56.87
2023-05-19T15:59:12.266Z,57.13
2023-05-19T16:02:21.391Z,57.36
2023-05-19T16:05:23.105Z,56.89
2023-05-19T16:08:25.079Z,56.94
2023-05-19T16:11:26.836Z,57.44
2023-05-19T16:14:31.944Z,57.41
2023-05-19T16:17:33.610Z,57.18
2023-05-19T16:20:35.457Z,57.19
2023-05-19T16:23:37.160Z,57.75
2023-05-19T16:26:39.038Z,57.63
2023-05-19T16:29:40.988Z,58.16
2023-05-19T16:32:42.956Z,58.05
2023-05-19T16:35:44.533Z,58.64
2023-05-19T16:38:46.123Z,58.48
2023-05-19T16:41:47.594Z,58.35
2023-05-19T16:44:49.135Z,58.37
2023-05-19T16:47:50.745Z,58.47
2023-05-19T16:50:52.365Z,58.39
2023-05-19T16:53:53.844Z,58.17
2023-05-19T16:56:55.426Z,58.11
2023-05-19T16:59:57.036Z,58.21
2023-05-19T17:02:58.697Z,57.81
2023-05-19T17:06:00.944Z,57.86
2023-05-19T17:09:02.606Z,57.67
2023-05-19T17:12:04.498Z,57.46
2023-05-19T17:15:06.526Z,57.57
2023-05-19T17:18:08.102Z,57.69
2023-05-19T17:21:09.757Z,57.73
2023-05-19T17:24:11.375Z,58.12
2023-05-19T17:27:12.954Z,58.31
2023-05-19T17:30:14.511Z,58.99
2023-05-19T17:33:16.056Z,58.89
2023-05-19T17:36:17.618Z,58.97
2023-05-19T17:39:20.149Z,58.68
2023-05-19T17:42:21.683Z,58.71
2023-05-19T17:45:23.157Z,59.18
2023-05-19T17:48:25.872Z,59.35
2023-05-19T17:51:28.030Z,59.46
2023-05-19T17:54:29.782Z,59.47
2023-05-19T17:57:33.478Z,59.50
2023-05-19T18:00:35.428Z,59.40
2023-05-19T18:03:37.506Z,59.41
2023-05-19T18:06:43.193Z,59.68
2023-05-19T18:09:50.548Z,59.61
2023-05-19T18:12:52.084Z,59.56
2023-05-19T18:15:53.663Z,59.58
2023-05-19T18:18:55.218Z,60.08
2023-05-19T18:21:56.734Z,60.25
2023-05-19T18:24:58.412Z,60.30
2023-05-19T18:27:59.907Z,60.46
2023-05-19T18:31:03.609Z,60.90
2023-05-19T18:34:05.148Z,60.86
2023-05-19T18:37:06.826Z,61.09
2023-05-19T18:40:08.860Z,61.33
2023-05-19T18:43:10.386Z,61.73
2023-05-19T18:46:13.328Z,61.72
2023-05-19T18:49:15.699Z,62.08
2023-05-19T18:52:18.959Z,62.25
2023-05-19T18:55:20.632Z,62.47
2023-05-19T18:58:22.247Z,62.24
2023-05-19T19:01:23.981Z,62.46
2023-05-19T19:04:25.614Z,62.42
2023-05-19T19:07:27.790Z,63.05
2023-05-19T19:10:29.709Z,63.21
2023-05-19T19:13:31.222Z,63.56
2023-05-19T19:16:33.954Z,63.89
2023-05-19T19:19:35.722Z,63.91
2023-05-19T19:22:37.263Z,63.98
2023-05-19T19:25:38.753Z,64.07
2023-05-19T19:28:40.404Z,64.11
2023-05-19T19:31:42.148Z,64.75
2023-05-19T19:34:43.694Z,65.25
2023-05-19T19:37:46.879Z,65.75
2023-05-19T19:40:51.357Z,66.30
2023-05-19T19:43:53.150Z,66.76
2023-05-19T19:46:54.860Z,67.22
2023-05-19T19:49:56.481Z,67.12
2023-05-19T19:52:58.257Z,67.65
2023-05-19T19:56:01.395Z,68.25
2023-05-19T19:59:03.069Z,69.42
2023-05-19T20:02:04.798Z,69.65
2023-05-19T20:05:06.952Z,69.66
2023-05-19T20:08:08.537Z,69.95
2023-05-19T20:11:10.144Z,70.60
2023-05-19T20:14:11.653Z,71.04
2023-05-19T20:17:13.317Z,71.42
2023-05-19T20:20:14.944Z,71.94
2023-05-19T20:23:16.631Z,72.33
2023-05-19T20:26:18.396Z,72.01
2023-05-19T20:29:20.062Z,71.83
2023-05-19T20:32:21.616Z,71.95
2023-05-19T20:35:23.643Z,71.54
2023-05-19T20:38:25.402Z,71.59
2023-05-19T20:41:27.465Z,71.08
2023-05-19T20:44:29.101Z,71.35
2023-05-19T20:47:30.908Z,70.69
2023-05-19T20:50:32.592Z,71.06
2023-05-19T20:53:34.343Z,71.36
2023-05-19T20:56:35.940Z,72.82
2023-05-19T20:59:37.872Z,74.24
2023-05-19T21:02:43.588Z,75.40
2023-05-19T21:05:45.994Z,76.22
2023-05-19T21:08:47.504Z,77.11
2023-05-19T21:11:49.020Z,77.41
2023-05-19T21:14:51.526Z,78.17
2023-05-19T21:17:53.059Z,77.81
2023-05-19T21:20:54.613Z,77.90
2023-05-19T21:23:56.685Z,78.22
2023-05-19T21:26:58.197Z,78.75
2023-05-19T21:30:00.013Z,79.79
2023-05-19T21:33:01.704Z,80.11
2023-05-19T21:36:03.383Z,81.33
2023-05-19T21:39:04.879Z,82.37
2023-05-19T21:42:06.427Z,82.71
2023-05-19T21:45:10.422Z,83.05
2023-05-19T21:48:12.137Z,83.34
2023-05-19T21:51:13.717Z,83.76
2023-05-19T21:54:15.730Z,84.36
2023-05-19T21:57:17.842Z,84.93
2023-05-19T22:00:19.394Z,85.73
2023-05-19T22:03:21.854Z,86.50
2023-05-19T22:06:23.597Z,87.01
2023-05-19T22:09:25.518Z,86.77
2023-05-19T22:12:27.036Z,86.41
2023-05-19T22:15:28.573Z,88.07
2023-05-19T22:18:30.126Z,88.33
2023-05-19T22:21:32.006Z,89.72
2023-05-19T22:24:33.580Z,90.64
2023-05-19T22:27:35.195Z,91.26
2023-05-19T22:30:40.046Z,91.14
2023-05-19T22:33:42.620Z,91.33
2023-05-19T22:36:45.964Z,91.68
2023-05-19T22:39:50.556Z,92.09
2023-05-19T22:42:52.312Z,91.24
2023-05-19T22:45:53.814Z,91.45
2023-05-19T22:48:55.343Z,90.79
2023-05-19T22:51:56.845Z,90.99
2023-05-19T22:54:58.361Z,90.88
2023-05-19T22:57:59.902Z,91.05
2023-05-19T23:01:01.569Z,90.73
2023-05-19T23:04:03.658Z,90.97
2023-05-19T23:07:05.337Z,90.69
2023-05-19T23:10:07.517Z,91.19
2023-05-19T23:13:10.184Z,91.55
2023-05-19T23:16:11.651Z,91.33
2023-05-19T23:19:13.308Z,91.42
2023-05-19T23:22:14.870Z,91.79
2023-05-19T23:25:16.461Z,92.25
2023-05-19T23:28:18.127Z,92.65
2023-05-19T23:31:19.713Z,92.23
2023-05-19T23:34:21.305Z,93.35
2023-05-19T23:37:22.919Z,93.29
2023-05-19T23:40:24.467Z,93.69
2023-05-19T23:43:26.051Z,93.32
2023-05-19T23:46:27.663Z,93.36
2023-05-19T23:49:29.275Z,93.60
2023-05-19T23:52:31.760Z,93.43
2023-05-19T23:55:33.972Z,93.88
2023-05-19T23:58:35.708Z,93.39
